sensor_id;sensor_type;location;lat;lon;timestamp;pressure;altitude;pressure_sealevel;temperature;humidity
55914;BME280;58179;48.776;9.124;2023-03-05T00:01:26;97636.50;;;1.71;100.00
55914;BME280;58179;48.776;9.124;2023-03-05T00:03:55;97637.06;;;1.66;100.00
55914;BME280;58179;48.776;9.124;2023-03-05T00:06:22;97635.25;;;1.67;100.00
55914;BME280;58179;48.776;9.124;2023-03-05T00:08:49;97627.25;;;1.68;100.00
55914;BME280;58179;48.776;9.124;2023-03-05T00:11:16;97633.28;;;1.69;100.00
55914;BME280;58179;48.776;9.124;2023-03-05T00:13:42;97631.47;;;1.69;100.00
55914;BME280;58179;48.776;9.124;2023-03-05T00:16:11;97628.50;;;1.72;100.00
55914;BME280;58179;48.776;9.124;2023-03-05T00:18:40;97634.31;;;1.74;100.00
55914;BME280;58179;48.776;9.124;2023-03-05T00:21:18;97625.94;;;1.79;100.00
55914;BME280;58179;48.776;9.124;2023-03-05T00:23:44;97630.16;;;1.80;100.00
55914;BME280;58179;48.776;9.124;2023-03-05T00:26:10;97622.34;;;1.80;100.00
55914;BME280;58179;48.776;9.124;2023-03-05T00:28:36;97618.34;;;1.84;100.00
55914;BME280;58179;48.776;9.124;2023-03-05T00:31:02;97613.31;;;1.82;100.00
55914;BME280;58179;48.776;9.124;2023-03-05T00:33:28;97621.75;;;1.84;100.00
55914;BME280;58179;48.776;9.124;2023-03-05T00:35:55;97618.78;;;1.87;100.00
55914;BME280;58179;48.776;9.124;2023-03-05T00:38:21;97609.50;;;1.85;100.00
55914;BME280;58179;48.776;9.124;2023-03-05T00:40:50;97617.16;;;1.86;100.00
55914;BME280;58179;48.776;9.124;2023-03-05T00:43:16;97610.94;;;1.87;100.00
55914;BME280;58179;48.776;9.124;2023-03-05T00:45:41;97610.94;;;1.87;100.00
55914;BME280;58179;48.776;9.124;2023-03-05T00:48:09;97610.56;;;1.90;100.00
55914;BME280;58179;48.776;9.124;2023-03-05T00:50:35;97604.34;;;1.91;100.00
55914;BME280;58179;48.776;9.124;2023-03-05T00:53:02;97613.78;;;1.92;100.00
55914;BME280;58179;48.776;9.124;2023-03-05T00:55:28;97609.38;;;1.93;100.00
55914;BME280;58179;48.776;9.124;2023-03-05T00:57:54;97599.34;;;1.97;100.00
55914;BME280;58179;48.776;9.124;2023-03-05T01:00:20;97595.72;;;1.98;100.00
55914;BME280;58179;48.776;9.124;2023-03-05T01:02:46;97596.34;;;2.00;100.00
55914;BME280;58179;48.776;9.124;2023-03-05T01:05:13;97597.34;;;1.99;100.00
55914;BME280;58179;48.776;9.124;2023-03-05T01:07:40;97596.53;;;1.98;100.00
55914;BME280;58179;48.776;9.124;2023-03-05T01:10:09;97591.72;;;1.95;100.00
55914;BME280;58179;48.776;9.124;2023-03-05T01:12:35;97597.13;;;1.93;100.00
55914;BME280;58179;48.776;9.124;2023-03-05T01:15:02;97582.47;;;1.92;100.00
55914;BME280;58179;48.776;9.124;2023-03-05T01:17:28;97590.09;;;1.94;100.00
55914;BME280;58179;48.776;9.124;2023-03-05T01:19:53;97589.91;;;1.95;100.00
55914;BME280;58179;48.776;9.124;2023-03-05T01:22:19;97579.44;;;1.95;100.00
55914;BME280;58179;48.776;9.124;2023-03-05T01:24:45;97582.28;;;1.94;100.00
55914;BME280;58179;48.776;9.124;2023-03-05T01:27:12;97576.06;;;1.95;100.00
55914;BME280;58179;48.776;9.124;2023-03-05T01:29:38;97579.44;;;1.95;100.00
55914;BME280;58179;48.776;9.124;2023-03-05T01:32:05;97574.22;;;1.95;100.00
55914;BME280;58179;48.776;9.124;2023-03-05T01:34:31;97572.81;;;1.93;100.00
55914;BME280;58179;48.776;9.124;2023-03-05T01:36:57;97572.66;;;1.94;100.00
55914;BME280;58179;48.776;9.124;2023-03-05T01:39:22;97562.38;;;1.93;100.00
55914;BME280;58179;48.776;9.124;2023-03-05T01:41:48;97560.59;;;1.93;100.00
55914;BME280;58179;48.776;9.124;2023-03-05T01:44:22;97562.00;;;1.96;100.00
55914;BME280;58179;48.776;9.124;2023-03-05T01:46:48;97561.19;;;1.95;100.00
55914;BME280;58179;48.776;9.124;2023-03-05T01:49:21;97553.34;;;1.95;100.00
55914;BME280;58179;48.776;9.124;2023-03-05T01:51:56;97554.16;;;1.96;100.00
55914;BME280;58179;48.776;9.124;2023-03-05T01:54:27;97546.72;;;1.93;100.00
55914;BME280;58179;48.776;9.124;2023-03-05T01:56:55;97544.50;;;1.90;100.00
55914;BME280;58179;48.776;9.124;2023-03-05T01:59:26;97542.06;;;1.88;100.00
55914;BME280;58179;48.776;9.124;2023-03-05T02:01:55;97536.84;;;1.88;100.00
55914;BME280;58179;48.776;9.124;2023-03-05T02:04:28;97535.66;;;1.91;100.00
55914;BME280;58179;48.776;9.124;2023-03-05T02:06:56;97534.03;;;1.90;100.00
55914;BME280;58179;48.776;9.124;2023-03-05T02:09:25;97528.63;;;1.91;100.00
55914;BME280;58179;48.776;9.124;2023-03-05T02:11:51;97529.25;;;1.93;100.00
55914;BME280;58179;48.776;9.124;2023-03-05T02:14:17;97525.03;;;1.92;100.00
55914;BME280;58179;48.776;9.124;2023-03-05T02:16:46;97518.81;;;1.93;100.00
55914;BME280;58179;48.776;9.124;2023-03-05T02:19:12;97513.41;;;1.95;100.00
55914;BME280;58179;48.776;9.124;2023-03-05T02:21:43;97512.97;;;1.91;100.00
55914;BME280;58179;48.776;9.124;2023-03-05T02:24:11;97513.97;;;1.90;100.00
55914;BME280;58179;48.776;9.124;2023-03-05T02:26:38;97510.81;;;1.95;100.00
55914;BME280;58179;48.776;9.124;2023-03-05T02:29:05;97512.34;;;1.89;100.00
55914;BME280;58179;48.776;9.124;2023-03-05T02:31:33;97509.56;;;1.91;100.00
55914;BME280;58179;48.776;9.124;2023-03-05T02:33:59;97520.41;;;1.88;100.00
55914;BME280;58179;48.776;9.124;2023-03-05T02:36:25;97510.16;;;1.86;100.00
55914;BME280;58179;48.776;9.124;2023-03-05T02:38:52;97510.97;;;1.87;100.00
55914;BME280;58179;48.776;9.124;2023-03-05T02:41:21;97503.94;;;1.87;100.00
55914;BME280;58179;48.776;9.124;2023-03-05T02:43:48;97504.53;;;1.89;100.00
55914;BME280;58179;48.776;9.124;2023-03-05T02:46:13;97497.50;;;1.90;100.00
55914;BME280;58179;48.776;9.124;2023-03-05T02:48:39;97501.53;;;1.92;100.00
55914;BME280;58179;48.776;9.124;2023-03-05T02:51:06;97500.75;;;1.92;100.00
55914;BME280;58179;48.776;9.124;2023-03-05T02:53:32;97497.31;;;1.91;100.00
55914;BME280;58179;48.776;9.124;2023-03-05T02:56:00;97491.72;;;1.94;100.00
55914;BME280;58179;48.776;9.124;2023-03-05T02:58:26;97490.91;;;1.94;100.00
55914;BME280;58179;48.776;9.124;2023-03-05T03:00:52;97494.75;;;2.05;100.00
55914;BME280;58179;48.776;9.124;2023-03-05T03:03:18;97479.69;;;2.00;100.00
55914;BME280;58179;48.776;9.124;2023-03-05T03:05:44;97483.31;;;1.99;100.00
55914;BME280;58179;48.776;9.124;2023-03-05T03:08:10;97476.06;;;1.94;100.00
55914;BME280;58179;48.776;9.124;2023-03-05T03:10:36;97477.06;;;1.93;100.00
55914;BME280;58179;48.776;9.124;2023-03-05T03:13:03;97478.47;;;1.96;100.00
55914;BME280;58179;48.776;9.124;2023-03-05T03:15:29;97474.44;;;1.93;100.00
55914;BME280;58179;48.776;9.124;2023-03-05T03:17:55;97472.84;;;1.92;100.00
55914;BME280;58179;48.776;9.124;2023-03-05T03:20:22;97473.81;;;1.91;100.00
55914;BME280;58179;48.776;9.124;2023-03-05T03:22:48;97477.63;;;1.89;100.00
55914;BME280;58179;48.776;9.124;2023-03-05T03:25:15;97471.81;;;1.87;100.00
55914;BME280;58179;48.776;9.124;2023-03-05T03:27:41;97465.59;;;1.88;100.00
55914;BME280;58179;48.776;9.124;2023-03-05T03:30:10;97466.38;;;1.88;100.00
55914;BME280;58179;48.776;9.124;2023-03-05T03:32:37;97464.78;;;1.87;100.00
55914;BME280;58179;48.776;9.124;2023-03-05T03:35:03;97466.38;;;1.88;100.00
55914;BME280;58179;48.776;9.124;2023-03-05T03:37:30;97455.72;;;1.83;100.00
55914;BME280;58179;48.776;9.124;2023-03-05T03:39:56;97459.94;;;1.84;100.00
55914;BME280;58179;48.776;9.124;2023-03-05T03:42:23;97448.88;;;1.82;100.00
55914;BME280;58179;48.776;9.124;2023-03-05T03:44:49;97456.91;;;1.81;100.00
55914;BME280;58179;48.776;9.124;2023-03-05T03:47:17;97446.88;;;1.78;100.00
55914;BME280;58179;48.776;9.124;2023-03-05T03:49:43;97448.28;;;1.80;100.00
55914;BME280;58179;48.776;9.124;2023-03-05T03:52:09;97444.66;;;1.81;100.00
55914;BME280;58179;48.776;9.124;2023-03-05T03:54:36;97442.47;;;1.78;100.00
55914;BME280;58179;48.776;9.124;2023-03-05T03:57:02;97445.06;;;1.78;100.00
55914;BME280;58179;48.776;9.124;2023-03-05T03:59:28;97441.66;;;1.78;100.00
55914;BME280;58179;48.776;9.124;2023-03-05T04:01:54;97440.41;;;1.74;100.00
55914;BME280;58179;48.776;9.124;2023-03-05T04:04:21;97438.03;;;1.72;100.00
55914;BME280;58179;48.776;9.124;2023-03-05T04:06:47;97428.97;;;1.75;100.00
55914;BME280;58179;48.776;9.124;2023-03-05T04:09:13;97434.63;;;1.78;100.00
55914;BME280;58179;48.776;9.124;2023-03-05T04:11:39;97432.81;;;1.72;100.00
55914;BME280;58179;48.776;9.124;2023-03-05T04:14:05;97428.75;;;1.70;100.00
55914;BME280;58179;48.776;9.124;2023-03-05T04:16:31;97435.41;;;1.72;100.00
55914;BME280;58179;48.776;9.124;2023-03-05T04:18:57;97432.22;;;1.77;100.00
55914;BME280;58179;48.776;9.124;2023-03-05T04:21:24;97432.41;;;1.75;100.00
55914;BME280;58179;48.776;9.124;2023-03-05T04:23:50;97430.22;;;1.79;100.00
55914;BME280;58179;48.776;9.124;2023-03-05T04:26:16;97431.81;;;1.80;100.00
55914;BME280;58179;48.776;9.124;2023-03-05T04:28:42;97428.44;;;1.86;100.00
55914;BME280;58179;48.776;9.124;2023-03-05T04:31:07;97418.38;;;1.83;100.00
55914;BME280;58179;48.776;9.124;2023-03-05T04:33:33;97424.59;;;1.82;100.00
55914;BME280;58179;48.776;9.124;2023-03-05T04:35:59;97422.56;;;1.77;100.00
55914;BME280;58179;48.776;9.124;2023-03-05T04:38:27;97416.97;;;1.80;100.00
55914;BME280;58179;48.776;9.124;2023-03-05T04:40:52;97417.38;;;1.84;100.00
55914;BME280;58179;48.776;9.124;2023-03-05T04:43:18;97424.41;;;1.83;100.00
55914;BME280;58179;48.776;9.124;2023-03-05T04:45:44;97420.97;;;1.83;100.00
55914;BME280;58179;48.776;9.124;2023-03-05T04:48:10;97410.72;;;1.81;100.00
55914;BME280;58179;48.776;9.124;2023-03-05T04:50:37;97406.31;;;1.82;100.00
55914;BME280;58179;48.776;9.124;2023-03-05T04:53:03;97418.16;;;1.78;100.00
55914;BME280;58179;48.776;9.124;2023-03-05T04:55:31;97408.13;;;1.81;100.00
55914;BME280;58179;48.776;9.124;2023-03-05T04:57:57;97412.97;;;1.84;100.00
55914;BME280;58179;48.776;9.124;2023-03-05T05:00:23;97412.34;;;1.82;100.00
55914;BME280;58179;48.776;9.124;2023-03-05T05:02:50;97407.13;;;1.82;100.00
55914;BME280;58179;48.776;9.124;2023-03-05T05:05:18;97408.38;;;1.86;100.00
55914;BME280;58179;48.776;9.124;2023-03-05T05:07:45;97406.16;;;1.90;100.00
55914;BME280;58179;48.776;9.124;2023-03-05T05:10:12;97408.75;;;1.90;100.00
55914;BME280;58179;48.776;9.124;2023-03-05T05:12:40;97405.38;;;1.96;100.00
55914;BME280;58179;48.776;9.124;2023-03-05T05:15:08;97399.72;;;1.86;100.00
55914;BME280;58179;48.776;9.124;2023-03-05T05:17:34;97401.53;;;1.85;100.00
55914;BME280;58179;48.776;9.124;2023-03-05T05:20:02;97401.56;;;1.92;100.00
55914;BME280;58179;48.776;9.124;2023-03-05T05:22:31;97395.13;;;1.88;100.00
55914;BME280;58179;48.776;9.124;2023-03-05T05:24:57;97391.91;;;1.86;100.00
55914;BME280;58179;48.776;9.124;2023-03-05T05:27:23;97399.91;;;1.84;100.00
55914;BME280;58179;48.776;9.124;2023-03-05T05:29:50;97398.31;;;1.83;100.00
55914;BME280;58179;48.776;9.124;2023-03-05T05:32:17;97396.88;;;1.81;100.00
55914;BME280;58179;48.776;9.124;2023-03-05T05:34:44;97401.09;;;1.82;100.00
55914;BME280;58179;48.776;9.124;2023-03-05T05:37:10;97405.91;;;1.78;100.00
55914;BME280;58179;48.776;9.124;2023-03-05T05:39:36;97394.25;;;1.74;100.00
55914;BME280;58179;48.776;9.124;2023-03-05T05:42:02;97400.47;;;1.73;100.00
55914;BME280;58179;48.776;9.124;2023-03-05T05:44:28;97399.50;;;1.81;100.00
55914;BME280;58179;48.776;9.124;2023-03-05T05:46:56;97396.28;;;1.79;100.00
55914;BME280;58179;48.776;9.124;2023-03-05T05:49:22;97391.88;;;1.79;100.00
55914;BME280;58179;48.776;9.124;2023-03-05T05:51:47;97402.31;;;1.79;100.00
55914;BME280;58179;48.776;9.124;2023-03-05T05:54:14;97394.88;;;1.76;100.00
55914;BME280;58179;48.776;9.124;2023-03-05T05:56:40;97388.66;;;1.77;100.00
55914;BME280;58179;48.776;9.124;2023-03-05T05:59:06;97393.88;;;1.77;100.00
55914;BME280;58179;48.776;9.124;2023-03-05T06:01:33;97388.66;;;1.77;100.00
55914;BME280;58179;48.776;9.124;2023-03-05T06:04:01;97394.69;;;1.78;100.00
55914;BME280;58179;48.776;9.124;2023-03-05T06:06:27;97396.47;;;1.77;100.00
55914;BME280;58179;48.776;9.124;2023-03-05T06:08:54;97396.09;;;1.80;100.00
55914;BME280;58179;48.776;9.124;2023-03-05T06:11:20;97392.69;;;1.80;100.00
55914;BME280;58179;48.776;9.124;2023-03-05T06:13:47;97395.47;;;1.78;100.00
55914;BME280;58179;48.776;9.124;2023-03-05T06:16:16;97397.28;;;1.78;100.00
55914;BME280;58179;48.776;9.124;2023-03-05T06:18:42;97399.72;;;1.79;100.00
55914;BME280;58179;48.776;9.124;2023-03-05T06:21:12;97398.72;;;1.80;100.00
55914;BME280;58179;48.776;9.124;2023-03-05T06:23:39;97394.28;;;1.81;100.00
55914;BME280;58179;48.776;9.124;2023-03-05T06:26:08;97398.91;;;1.85;100.00
55914;BME280;58179;48.776;9.124;2023-03-05T06:28:35;97392.47;;;1.81;100.00
55914;BME280;58179;48.776;9.124;2023-03-05T06:31:03;97398.31;;;1.83;100.00
55914;BME280;58179;48.776;9.124;2023-03-05T06:33:31;97398.31;;;1.83;100.00
55914;BME280;58179;48.776;9.124;2023-03-05T06:35:57;97392.91;;;1.85;100.00
55914;BME280;58179;48.776;9.124;2023-03-05T06:38:25;97392.72;;;1.86;100.00
55914;BME280;58179;48.776;9.124;2023-03-05T06:40:51;97388.28;;;1.87;100.00
55914;BME280;58179;48.776;9.124;2023-03-05T06:43:17;97387.06;;;1.89;100.00
55914;BME280;58179;48.776;9.124;2023-03-05T06:45:43;97391.50;;;1.89;100.00
55914;BME280;58179;48.776;9.124;2023-03-05T06:48:09;97391.31;;;1.90;100.00
55914;BME280;58179;48.776;9.124;2023-03-05T06:50:36;97393.28;;;1.88;100.00
55914;BME280;58179;48.776;9.124;2023-03-05T06:53:02;97388.88;;;1.89;100.00
55914;BME280;58179;48.776;9.124;2023-03-05T06:55:30;97392.09;;;1.91;100.00
55914;BME280;58179;48.776;9.124;2023-03-05T06:58:05;97384.69;;;1.94;100.00
55914;BME280;58179;48.776;9.124;2023-03-05T07:00:31;97388.72;;;1.97;100.00
55914;BME280;58179;48.776;9.124;2023-03-05T07:02:57;97391.94;;;1.99;100.00
55914;BME280;58179;48.776;9.124;2023-03-05T07:05:23;97386.34;;;2.02;100.00
55914;BME280;58179;48.776;9.124;2023-03-05T07:07:58;97393.34;;;2.02;100.00
55914;BME280;58179;48.776;9.124;2023-03-05T07:10:24;97384.72;;;2.01;100.00
55914;BME280;58179;48.776;9.124;2023-03-05T07:12:51;97380.09;;;2.03;100.00
55914;BME280;58179;48.776;9.124;2023-03-05T07:15:17;97385.91;;;2.05;100.00
55914;BME280;58179;48.776;9.124;2023-03-05T07:17:43;97387.53;;;2.06;100.00
55914;BME280;58179;48.776;9.124;2023-03-05T07:20:10;97381.50;;;2.06;100.00
55914;BME280;58179;48.776;9.124;2023-03-05T07:22:36;97383.13;;;2.13;100.00
55914;BME280;58179;48.776;9.124;2023-03-05T07:25:03;97380.31;;;2.15;100.00
55914;BME280;58179;48.776;9.124;2023-03-05T07:27:33;97386.34;;;2.15;100.00
55914;BME280;58179;48.776;9.124;2023-03-05T07:30:00;97374.91;;;2.16;100.00
55914;BME280;58179;48.776;9.124;2023-03-05T07:32:26;97376.13;;;2.20;100.00
55914;BME280;58179;48.776;9.124;2023-03-05T07:34:52;97381.34;;;2.20;100.00
55914;BME280;58179;48.776;9.124;2023-03-05T07:37:18;97377.91;;;2.20;100.00
55914;BME280;58179;48.776;9.124;2023-03-05T07:39:44;97373.72;;;2.25;100.00
55914;BME280;58179;48.776;9.124;2023-03-05T07:42:10;97377.13;;;2.26;100.00
55914;BME280;58179;48.776;9.124;2023-03-05T07:44:36;97373.31;;;2.28;100.00
55914;BME280;58179;48.776;9.124;2023-03-05T07:47:05;97368.50;;;2.32;100.00
55914;BME280;58179;48.776;9.124;2023-03-05T07:49:31;97371.31;;;2.30;100.00
55914;BME280;58179;48.776;9.124;2023-03-05T07:51:57;97379.34;;;2.36;100.00
55914;BME280;58179;48.776;9.124;2023-03-05T07:54:23;97372.94;;;2.38;100.00
55914;BME280;58179;48.776;9.124;2023-03-05T07:56:48;97369.91;;;2.41;100.00
55914;BME280;58179;48.776;9.124;2023-03-05T07:59:14;97380.97;;;2.43;100.00
55914;BME280;58179;48.776;9.124;2023-03-05T08:01:40;97370.13;;;2.46;100.00
55914;BME280;58179;48.776;9.124;2023-03-05T08:04:08;97368.91;;;2.49;100.00
55914;BME280;58179;48.776;9.124;2023-03-05T08:06:38;97372.13;;;2.51;100.00
55914;BME280;58179;48.776;9.124;2023-03-05T08:09:05;97373.13;;;2.56;100.00
55914;BME280;58179;48.776;9.124;2023-03-05T08:11:31;97366.09;;;2.57;100.00
55914;BME280;58179;48.776;9.124;2023-03-05T08:13:57;97372.94;;;2.58;100.00
55914;BME280;58179;48.776;9.124;2023-03-05T08:16:24;97367.31;;;2.61;100.00
55914;BME280;58179;48.776;9.124;2023-03-05T08:18:53;97367.72;;;2.64;100.00
55914;BME280;58179;48.776;9.124;2023-03-05T08:21:24;97367.72;;;2.71;100.00
55914;BME280;58179;48.776;9.124;2023-03-05T08:23:54;97364.72;;;2.67;100.00
55914;BME280;58179;48.776;9.124;2023-03-05T08:26:23;97369.56;;;2.70;100.00
55914;BME280;58179;48.776;9.124;2023-03-05T08:28:50;97363.91;;;2.73;100.00
55914;BME280;58179;48.776;9.124;2023-03-05T08:31:19;97359.09;;;2.77;100.00
55914;BME280;58179;48.776;9.124;2023-03-05T08:33:46;97362.09;;;2.81;100.00
55914;BME280;58179;48.776;9.124;2023-03-05T08:36:12;97366.72;;;2.85;100.00
55914;BME280;58179;48.776;9.124;2023-03-05T08:38:40;97361.69;;;2.90;100.00
55914;BME280;58179;48.776;9.124;2023-03-05T08:41:06;97362.28;;;2.92;100.00
55914;BME280;58179;48.776;9.124;2023-03-05T08:43:32;97358.66;;;2.93;100.00
55914;BME280;58179;48.776;9.124;2023-03-05T08:46:00;97357.25;;;2.97;100.00
55914;BME280;58179;48.776;9.124;2023-03-05T08:48:27;97350.59;;;3.01;100.00
55914;BME280;58179;48.776;9.124;2023-03-05T08:50:53;97345.97;;;3.03;100.00
55914;BME280;58179;48.776;9.124;2023-03-05T08:53:19;97353.78;;;3.10;100.00
55914;BME280;58179;48.776;9.124;2023-03-05T08:55:53;97350.97;;;3.18;100.00
55914;BME280;58179;48.776;9.124;2023-03-05T08:58:20;97343.56;;;3.15;100.00
55914;BME280;58179;48.776;9.124;2023-03-05T09:00:46;97341.94;;;3.14;100.00
55914;BME280;58179;48.776;9.124;2023-03-05T09:03:11;97351.19;;;3.23;100.00
55914;BME280;58179;48.776;9.124;2023-03-05T09:05:37;97341.91;;;3.27;100.00
55914;BME280;58179;48.776;9.124;2023-03-05T09:08:03;97339.66;;;3.31;100.00
55914;BME280;58179;48.776;9.124;2023-03-05T09:10:29;97341.25;;;3.38;100.00
55914;BME280;58179;48.776;9.124;2023-03-05T09:12:56;97341.03;;;3.40;100.00
55914;BME280;58179;48.776;9.124;2023-03-05T09:15:22;97339.44;;;3.45;100.00
55914;BME280;58179;48.776;9.124;2023-03-05T09:17:48;97341.00;;;3.53;100.00
55914;BME280;58179;48.776;9.124;2023-03-05T09:20:16;97334.53;;;3.56;100.00
55914;BME280;58179;48.776;9.124;2023-03-05T09:22:42;97333.13;;;3.60;100.00
55914;BME280;58179;48.776;9.124;2023-03-05T09:25:10;97337.72;;;3.64;100.00
55914;BME280;58179;48.776;9.124;2023-03-05T09:27:37;97325.03;;;3.68;100.00
55914;BME280;58179;48.776;9.124;2023-03-05T09:30:07;97333.06;;;3.73;100.00
55914;BME280;58179;48.776;9.124;2023-03-05T09:32:33;97327.63;;;3.74;100.00
55914;BME280;58179;48.776;9.124;2023-03-05T09:34:59;97326.78;;;3.80;100.00
55914;BME280;58179;48.776;9.124;2023-03-05T09:37:24;97316.91;;;3.82;100.00
55914;BME280;58179;48.776;9.124;2023-03-05T09:39:50;97316.06;;;3.88;100.00
55914;BME280;58179;48.776;9.124;2023-03-05T09:42:49;97314.63;;;3.93;100.00
55914;BME280;58179;48.776;9.124;2023-03-05T09:45:26;97317.25;;;3.93;100.00
55914;BME280;58179;48.776;9.124;2023-03-05T09:48:02;97318.25;;;3.92;100.00
55914;BME280;58179;48.776;9.124;2023-03-05T09:50:39;97310.63;;;3.90;100.00
55914;BME280;58179;48.776;9.124;2023-03-05T09:53:25;97311.44;;;3.91;100.00
55914;BME280;58179;48.776;9.124;2023-03-05T09:55:56;97299.72;;;3.93;100.00
55914;BME280;58179;48.776;9.124;2023-03-05T09:58:33;97299.88;;;4.05;100.00
55914;BME280;58179;48.776;9.124;2023-03-05T10:01:05;97303.44;;;4.10;100.00
55914;BME280;58179;48.776;9.124;2023-03-05T10:03:50;97298.16;;;4.17;100.00
55914;BME280;58179;48.776;9.124;2023-03-05T10:06:22;97295.50;;;4.23;100.00
55914;BME280;58179;48.776;9.124;2023-03-05T10:08:55;97292.47;;;4.26;100.00
55914;BME280;58179;48.776;9.124;2023-03-05T10:11:39;97286.78;;;4.29;100.00
55914;BME280;58179;48.776;9.124;2023-03-05T10:17:20;97291.97;;;4.36;100.00
55914;BME280;58179;48.776;9.124;2023-03-05T10:20:28;97292.34;;;4.40;100.00
55914;BME280;58179;48.776;9.124;2023-03-05T10:23:11;97290.53;;;4.40;100.00
55914;BME280;58179;48.776;9.124;2023-03-05T10:25:51;97285.88;;;4.42;100.00
55914;BME280;58179;48.776;9.124;2023-03-05T10:28:24;97280.19;;;4.45;100.00
55914;BME280;58179;48.776;9.124;2023-03-05T10:31:17;97285.03;;;4.48;100.00
55914;BME280;58179;48.776;9.124;2023-03-05T10:33:58;97284.81;;;4.50;100.00
55914;BME280;58179;48.776;9.124;2023-03-05T10:36:41;97274.91;;;4.52;100.00
55914;BME280;58179;48.776;9.124;2023-03-05T10:39:58;97269.50;;;4.47;100.00
55914;BME280;58179;48.776;9.124;2023-03-05T10:42:32;97266.88;;;4.47;100.00
55914;BME280;58179;48.776;9.124;2023-03-05T10:45:13;97261.28;;;4.43;100.00
55914;BME280;58179;48.776;9.124;2023-03-05T10:47:44;97264.91;;;4.42;100.00
55914;BME280;58179;48.776;9.124;2023-03-05T10:50:19;97259.03;;;4.47;100.00
55914;BME280;58179;48.776;9.124;2023-03-05T10:52:50;97253.56;;;4.48;100.00
55914;BME280;58179;48.776;9.124;2023-03-05T10:55:19;97254.97;;;4.51;100.00
55914;BME280;58179;48.776;9.124;2023-03-05T10:57:46;97257.34;;;4.52;100.00
55914;BME280;58179;48.776;9.124;2023-03-05T11:00:19;97246.66;;;4.54;100.00
55914;BME280;58179;48.776;9.124;2023-03-05T11:03:00;97246.06;;;4.52;100.00
55914;BME280;58179;48.776;9.124;2023-03-05T11:05:43;97243.28;;;4.47;100.00
55914;BME280;58179;48.776;9.124;2023-03-05T11:08:30;97237.84;;;4.48;100.00
55914;BME280;58179;48.776;9.124;2023-03-05T11:11:13;97236.31;;;4.41;100.00
55914;BME280;58179;48.776;9.124;2023-03-05T11:13:56;97233.81;;;4.27;100.00
55914;BME280;58179;48.776;9.124;2023-03-05T11:16:25;97235.44;;;4.22;100.00
55914;BME280;58179;48.776;9.124;2023-03-05T11:19:16;97227.81;;;4.20;100.00
55914;BME280;58179;48.776;9.124;2023-03-05T11:21:45;97230.44;;;4.20;100.00
55914;BME280;58179;48.776;9.124;2023-03-05T11:24:14;97231.66;;;4.18;100.00
55914;BME280;58179;48.776;9.124;2023-03-05T11:26:49;97224.00;;;4.16;100.00
55914;BME280;58179;48.776;9.124;2023-03-05T11:29:20;97231.50;;;4.13;100.00
55914;BME280;58179;48.776;9.124;2023-03-05T11:31:47;97229.72;;;4.07;100.00
55914;BME280;58179;48.776;9.124;2023-03-05T11:34:28;97225.19;;;3.96;100.00
55914;BME280;58179;48.776;9.124;2023-03-05T11:37:03;97221.16;;;3.93;100.00
55914;BME280;58179;48.776;9.124;2023-03-05T11:39:32;97220.34;;;3.93;100.00
55914;BME280;58179;48.776;9.124;2023-03-05T11:42:05;97216.38;;;3.90;100.00
55914;BME280;58179;48.776;9.124;2023-03-05T11:44:44;97209.69;;;3.94;100.00
55914;BME280;58179;48.776;9.124;2023-03-05T11:47:22;97211.50;;;3.94;100.00
55914;BME280;58179;48.776;9.124;2023-03-05T11:49:53;97211.28;;;3.95;100.00
55914;BME280;58179;48.776;9.124;2023-03-05T11:52:25;97206.84;;;3.96;100.00
55914;BME280;58179;48.776;9.124;2023-03-05T11:54:58;97201.16;;;3.99;100.00
55914;BME280;58179;48.776;9.124;2023-03-05T11:57:28;97206.25;;;3.94;100.00
55914;BME280;58179;48.776;9.124;2023-03-05T11:59:58;97198.56;;;3.99;100.00
55914;BME280;58179;48.776;9.124;2023-03-05T12:02:27;97201.16;;;3.99;100.00
55914;BME280;58179;48.776;9.124;2023-03-05T12:04:52;97190.13;;;3.97;100.00
55914;BME280;58179;48.776;9.124;2023-03-05T12:07:32;97191.13;;;3.96;100.00
55914;BME280;58179;48.776;9.124;2023-03-05T12:09:59;97187.31;;;3.98;100.00
55914;BME280;58179;48.776;9.124;2023-03-05T12:12:36;97183.13;;;3.91;100.00
55914;BME280;58179;48.776;9.124;2023-03-05T12:18:31;97178.66;;;3.91;100.00
55914;BME280;58179;48.776;9.124;2023-03-05T12:21:05;97157.38;;;3.87;100.00
55914;BME280;58179;48.776;9.124;2023-03-05T12:23:47;97171.47;;;3.86;100.00
55914;BME280;58179;48.776;9.124;2023-03-05T12:26:16;97168.03;;;3.86;100.00
55914;BME280;58179;48.776;9.124;2023-03-05T12:28:55;97162.44;;;3.82;100.00
55914;BME280;58179;48.776;9.124;2023-03-05T12:31:35;97156.97;;;3.84;100.00
55914;BME280;58179;48.776;9.124;2023-03-05T12:34:48;97147.91;;;3.86;100.00
55914;BME280;58179;48.776;9.124;2023-03-05T12:44:18;97130.47;;;3.99;100.00
55914;BME280;58179;48.776;9.124;2023-03-05T12:47:00;97127.06;;;3.98;100.00
55914;BME280;58179;48.776;9.124;2023-03-05T12:49:38;97122.78;;;4.04;100.00
55914;BME280;58179;48.776;9.124;2023-03-05T12:52:19;97120.53;;;4.07;100.00
55914;BME280;58179;48.776;9.124;2023-03-05T12:55:01;97114.88;;;4.10;100.00
55914;BME280;58179;48.776;9.124;2023-03-05T12:57:39;97117.63;;;4.15;100.00
55914;BME280;58179;48.776;9.124;2023-03-05T13:00:11;97112.09;;;4.23;100.00
55914;BME280;58179;48.776;9.124;2023-03-05T13:02:41;97114.50;;;4.25;100.00
55914;BME280;58179;48.776;9.124;2023-03-05T13:05:18;97109.28;;;4.25;100.00
55914;BME280;58179;48.776;9.124;2023-03-05T13:07:46;97113.63;;;4.31;100.00
55914;BME280;58179;48.776;9.124;2023-03-05T13:10:23;97106.97;;;4.35;100.00
55914;BME280;58179;48.776;9.124;2023-03-05T13:12:53;97117.19;;;4.37;100.00
55914;BME280;58179;48.776;9.124;2023-03-05T13:15:21;97103.09;;;4.38;100.00
55914;BME280;58179;48.776;9.124;2023-03-05T13:17:54;97106.97;;;4.35;100.00
55914;BME280;58179;48.776;9.124;2023-03-05T13:20:39;97106.06;;;4.23;100.00
55914;BME280;58179;48.776;9.124;2023-03-05T13:23:20;97105.25;;;4.22;100.00
55914;BME280;58179;48.776;9.124;2023-03-05T13:26:00;97096.84;;;4.20;100.00